Ellisboro, North Carolina
Current Conditions -  °F | °C
As of 6:15 PM on Thursday 27 Nov 2014 (Local Time) from KSIF Reporting Station
Broken Clouds Broken Clouds  
Wind Chill: 39°   Ceiling: 5000
Heat Index: 39°   Visibility: 10mi
Dew Point: 26°   Wind: 3mph
Humidity: 60%   Direction: 300°WNW
Pressure: 30.19"   Gusts: NA
Location:  36.3697°N, 79.9626°W
Report Text: KSIF 272315Z AUTO 30003KT 10SM BKN050 04/M03 A3019 RMK AO2 T00401032
Loading
Personal Weather Stations






























Interactive Weather Map New forecast layout! Learn more

10-Day Weather Forecast

Advertisements
Track Severe Weather on mobile